createdAt,value
2018-05-24T00:01:45.573Z,98822
2018-05-24T00:04:13.966Z,98819
2018-05-24T00:06:42.020Z,98818
2018-05-24T00:09:10.077Z,98814
2018-05-24T00:11:38.417Z,98820
2018-05-24T00:14:07.237Z,98815
2018-05-24T00:16:35.312Z,98818
2018-05-24T00:19:03.584Z,98816
2018-05-24T00:21:31.660Z,98812
2018-05-24T00:23:59.721Z,98816
2018-05-24T00:26:27.849Z,98818
2018-05-24T00:28:55.921Z,98820
2018-05-24T00:31:23.965Z,98816
2018-05-24T00:33:52.055Z,98818
2018-05-24T00:36:20.901Z,98804
2018-05-24T00:38:51.441Z,98810
2018-05-24T00:41:20.065Z,98809
2018-05-24T00:43:48.109Z,98809
2018-05-24T00:46:16.869Z,98807
2018-05-24T00:48:45.201Z,98807
2018-05-24T00:51:13.273Z,98803
2018-05-24T00:53:41.348Z,98802
2018-05-24T00:56:10.205Z,98801
2018-05-24T00:58:38.293Z,98801
2018-05-24T01:01:06.349Z,98803
2018-05-24T01:03:35.265Z,98803
2018-05-24T01:06:04.106Z,98806
2018-05-24T01:08:32.222Z,98808
2018-05-24T01:11:01.068Z,98807
2018-05-24T01:13:29.140Z,98809
2018-05-24T01:15:57.237Z,98812
2018-05-24T01:18:25.340Z,98811
2018-05-24T01:20:53.417Z,98808
2018-05-24T01:23:22.272Z,98808
2018-05-24T01:25:50.561Z,98813
2018-05-24T01:28:18.616Z,98808
2018-05-24T01:30:46.706Z,98810
2018-05-24T01:33:14.981Z,98805
2018-05-24T01:35:43.066Z,98814
2018-05-24T01:38:11.105Z,98810
2018-05-24T01:40:39.205Z,98806
2018-05-24T01:43:07.249Z,98803
2018-05-24T01:45:35.309Z,98794
2018-05-24T01:48:03.688Z,98790
2018-05-24T01:50:31.760Z,98793
2018-05-24T01:52:59.828Z,98801
2018-05-24T01:55:27.918Z,98800
2018-05-24T01:57:56.188Z,98802
2018-05-24T02:00:24.278Z,98801
2018-05-24T02:02:52.373Z,98796
2018-05-24T02:05:21.225Z,98793
2018-05-24T02:07:49.308Z,98789
2018-05-24T02:10:17.560Z,98793
2018-05-24T02:12:45.633Z,98790
2018-05-24T02:15:13.700Z,98788
2018-05-24T02:17:41.793Z,98776
2018-05-24T02:20:09.886Z,98777
2018-05-24T02:22:37.961Z,98782
2018-05-24T02:25:06.848Z,98785
2018-05-24T02:27:34.890Z,98786
2018-05-24T02:30:03.461Z,98787
2018-05-24T02:32:31.567Z,98788
2018-05-24T02:34:59.645Z,98782
2018-05-24T02:37:28.803Z,98780
2018-05-24T02:39:56.901Z,98781
2018-05-24T02:42:24.987Z,98779
2018-05-24T02:44:53.078Z,98784
2018-05-24T02:47:21.949Z,98788
2018-05-24T02:49:50.028Z,98789
2018-05-24T02:52:19.305Z,98794
2018-05-24T02:54:47.392Z,98793
2018-05-24T02:57:16.261Z,98791
2018-05-24T02:59:44.645Z,98796
2018-05-24T03:02:12.701Z,98794
2018-05-24T03:04:40.761Z,98797
2018-05-24T03:07:08.874Z,98797
2018-05-24T03:09:36.917Z,98805
2018-05-24T03:12:04.981Z,98804
2018-05-24T03:14:33.265Z,98809
2018-05-24T03:17:01.325Z,98810
2018-05-24T03:19:29.396Z,98817
2018-05-24T03:21:57.805Z,98808
2018-05-24T03:24:25.860Z,98818
2018-05-24T03:26:53.929Z,98817
2018-05-24T03:29:22.305Z,98815
2018-05-24T03:31:50.481Z,98823
2018-05-24T03:34:18.578Z,98827
2018-05-24T03:36:46.678Z,98831
2018-05-24T03:39:14.749Z,98825
2018-05-24T03:41:42.792Z,98824
2018-05-24T03:44:10.917Z,98826
2018-05-24T03:46:38.993Z,98826
2018-05-24T03:49:07.081Z,98817
2018-05-24T03:51:35.485Z,98819
2018-05-24T03:54:03.528Z,98823
2018-05-24T03:56:31.592Z,98819
2018-05-24T03:59:00.175Z,98814
2018-05-24T04:01:28.273Z,98813
2018-05-24T04:03:56.357Z,98810
2018-05-24T04:06:24.725Z,98811
2018-05-24T04:08:52.881Z,98813
2018-05-24T04:11:20.970Z,98812
2018-05-24T04:13:49.350Z,98808
2018-05-24T04:16:17.434Z,98810
2018-05-24T04:18:45.513Z,98811
2018-05-24T04:21:14.597Z,98806
2018-05-24T04:23:43.284Z,98804
2018-05-24T04:26:12.119Z,98789
2018-05-24T04:28:40.965Z,98785
2018-05-24T04:31:09.801Z,98784
2018-05-24T04:33:37.909Z,98786
2018-05-24T04:36:06.905Z,98785
2018-05-24T04:38:34.960Z,98785
2018-05-24T04:41:03.048Z,98784
2018-05-24T04:43:31.397Z,98789
2018-05-24T04:45:59.496Z,98786
2018-05-24T04:48:28.460Z,98782
2018-05-24T04:50:57.586Z,98782
2018-05-24T04:53:25.672Z,98780
2018-05-24T04:55:53.712Z,98782
2018-05-24T04:58:22.725Z,98791
2018-05-24T05:00:51.521Z,98798
2018-05-24T05:03:20.169Z,98796
2018-05-24T05:05:49.070Z,98799
2018-05-24T05:08:18.489Z,98798
2018-05-24T05:10:47.130Z,98794
2018-05-24T05:13:15.937Z,98791
2018-05-24T05:15:45.073Z,98789
2018-05-24T05:18:13.141Z,98785
2018-05-24T05:20:41.192Z,98785
2018-05-24T05:23:10.367Z,98789
2018-05-24T05:25:39.097Z,98796
2018-05-24T05:28:07.146Z,98801
2018-05-24T05:30:35.967Z,98800
2018-05-24T05:33:04.549Z,98805
2018-05-24T05:35:34.418Z,98805
2018-05-24T05:38:04.050Z,98809
2018-05-24T05:40:33.116Z,98811
2018-05-24T05:43:02.005Z,98814
2018-05-24T05:45:30.517Z,98821
2018-05-24T05:47:58.601Z,98821
2018-05-24T05:50:27.177Z,98826
2018-05-24T05:52:56.319Z,98825
2018-05-24T05:55:24.925Z,98823
2018-05-24T05:57:53.741Z,98824
2018-05-24T06:00:22.401Z,98820
2018-05-24T06:02:51.187Z,98818
2018-05-24T06:05:19.972Z,98816
2018-05-24T06:07:48.044Z,98826
2018-05-24T06:10:16.833Z,98824
2018-05-24T06:12:44.916Z,98821
2018-05-24T06:15:13.808Z,98821
2018-05-24T06:17:42.381Z,98825
2018-05-24T06:20:11.146Z,98825
2018-05-24T06:22:40.809Z,98826
2018-05-24T06:25:09.914Z,98821
2018-05-24T06:27:38.656Z,98823
2018-05-24T06:30:07.489Z,98818
2018-05-24T06:32:37.052Z,98823
2018-05-24T06:35:05.892Z,98824
2018-05-24T06:37:35.652Z,98823
2018-05-24T06:40:05.305Z,98819
2018-05-24T06:42:34.077Z,98830
2018-05-24T06:45:02.930Z,98824
2018-05-24T06:47:31.764Z,98824
2018-05-24T06:49:59.849Z,98827
2018-05-24T06:52:29.244Z,98827
2018-05-24T06:54:58.824Z,98829
2018-05-24T06:57:27.633Z,98829
2018-05-24T06:59:56.400Z,98829
2018-05-24T07:02:25.277Z,98826
2018-05-24T07:04:54.157Z,98825
2018-05-24T07:07:23.050Z,98822
2018-05-24T07:09:51.889Z,98819
2018-05-24T07:12:21.453Z,98815
2018-05-24T07:14:50.181Z,98816
2018-05-24T07:17:19.121Z,98814
2018-05-24T07:19:47.745Z,98814
2018-05-24T07:22:16.653Z,98813
2018-05-24T07:24:46.233Z,98822
2018-05-24T07:27:14.846Z,98821
2018-05-24T07:29:44.497Z,98821
2018-05-24T07:32:13.671Z,98820
2018-05-24T07:34:43.516Z,98825
2018-05-24T07:37:12.705Z,98825
2018-05-24T07:39:41.546Z,98825
2018-05-24T07:42:10.229Z,98818
2018-05-24T07:44:39.201Z,98823
2018-05-24T07:47:07.972Z,98822
2018-05-24T07:49:36.675Z,98818
2018-05-24T07:52:05.470Z,98820
2018-05-24T07:54:34.692Z,98819
2018-05-24T07:57:04.805Z,98817
2018-05-24T07:59:33.373Z,98824
2018-05-24T08:02:02.338Z,98823
2018-05-24T08:04:31.365Z,98826
2018-05-24T08:07:00.673Z,98828
2018-05-24T08:09:29.577Z,98823
2018-05-24T08:11:59.289Z,98826
2018-05-24T08:14:28.669Z,98825
2018-05-24T08:16:57.477Z,98829
2018-05-24T08:19:27.269Z,98829
2018-05-24T08:21:56.021Z,98829
2018-05-24T08:24:24.953Z,98828
2018-05-24T08:26:53.745Z,98830
2018-05-24T08:29:23.298Z,98820
2018-05-24T08:31:52.037Z,98807
2018-05-24T08:34:20.984Z,98790
2018-05-24T08:36:49.810Z,98778
2018-05-24T08:39:18.701Z,98771
2018-05-24T08:41:48.484Z,98773
2018-05-24T08:44:17.268Z,98766
2018-05-24T08:46:45.896Z,98770
2018-05-24T08:49:15.269Z,98762
2018-05-24T08:51:43.938Z,98763
2018-05-24T08:54:12.529Z,98755
2018-05-24T08:56:40.584Z,98757
2018-05-24T08:59:09.694Z,98764
2018-05-24T09:01:38.417Z,98765
2018-05-24T09:04:08.493Z,98767
2018-05-24T09:06:36.559Z,98771
2018-05-24T09:09:05.515Z,98768
2018-05-24T09:11:33.568Z,98765
2018-05-24T09:14:01.690Z,98762
2018-05-24T09:16:30.433Z,98768
2018-05-24T09:18:59.891Z,98770
2018-05-24T09:21:28.637Z,98769
2018-05-24T09:23:58.333Z,98764
2018-05-24T09:26:28.001Z,98758
2018-05-24T09:28:57.108Z,98754
2018-05-24T09:31:25.828Z,98746
2018-05-24T09:33:55.466Z,98745
2018-05-24T09:36:24.428Z,98738
2018-05-24T09:38:53.697Z,98734
2018-05-24T09:41:22.763Z,98736
2018-05-24T09:43:51.665Z,98734
2018-05-24T09:46:21.373Z,98736
2018-05-24T09:48:50.360Z,98735
2018-05-24T09:51:18.437Z,98735
2018-05-24T09:53:47.009Z,98719
2018-05-24T09:56:15.105Z,98716
2018-05-24T09:58:44.113Z,98710
2018-05-24T10:01:13.128Z,98711
2018-05-24T10:03:43.021Z,98711
2018-05-24T10:06:11.976Z,98708
2018-05-24T10:08:41.517Z,98690
2018-05-24T10:11:10.276Z,98691
2018-05-24T10:13:38.816Z,98690
2018-05-24T10:16:08.579Z,98693
2018-05-24T10:18:37.183Z,98690
2018-05-24T10:21:06.481Z,98689
2018-05-24T10:23:35.602Z,98703
2018-05-24T10:26:03.680Z,98703
2018-05-24T10:28:33.037Z,98696
2018-05-24T10:31:01.737Z,98698
2018-05-24T10:33:30.542Z,98695
2018-05-24T10:35:59.385Z,98693
2018-05-24T10:38:28.117Z,98684
2018-05-24T10:40:58.528Z,98676
2018-05-24T10:43:27.665Z,98680
2018-05-24T10:45:57.923Z,98672
2018-05-24T10:48:26.287Z,98667
2018-05-24T10:50:54.400Z,98667
2018-05-24T10:53:22.845Z,98670
2018-05-24T10:55:51.362Z,98683
2018-05-24T10:58:20.253Z,98685
2018-05-24T11:00:49.349Z,98677
2018-05-24T11:03:17.805Z,98667
2018-05-24T11:05:46.592Z,98662
2018-05-24T11:08:15.405Z,98657
2018-05-24T11:10:44.293Z,98644
2018-05-24T11:13:14.227Z,98642
2018-05-24T11:15:43.893Z,98641
2018-05-24T11:18:12.467Z,98644
2018-05-24T11:20:40.992Z,98646
2018-05-24T11:23:10.167Z,98652
2018-05-24T11:25:38.937Z,98654
2018-05-24T11:28:07.773Z,98652
2018-05-24T11:30:35.850Z,98651
2018-05-24T11:33:05.522Z,98646
2018-05-24T11:35:34.125Z,98641
2018-05-24T11:38:02.220Z,98644
2018-05-24T11:40:31.055Z,98639
2018-05-24T11:42:59.761Z,98647
2018-05-24T11:45:29.992Z,98641
2018-05-24T11:47:58.841Z,98638
2018-05-24T11:50:26.909Z,98637
2018-05-24T11:52:55.602Z,98636
2018-05-24T11:55:24.341Z,98640
2018-05-24T11:57:53.233Z,98642
2018-05-24T12:00:22.578Z,98644
2018-05-24T12:02:51.466Z,98641
2018-05-24T12:05:19.991Z,98643
2018-05-24T12:07:48.649Z,98643
2018-05-24T12:10:18.081Z,98642
2018-05-24T12:12:47.701Z,98648
2018-05-24T12:15:17.453Z,98655
2018-05-24T12:17:46.053Z,98651
2018-05-24T12:20:15.253Z,98658
2018-05-24T12:22:44.725Z,98659
2018-05-24T12:25:14.375Z,98651
2018-05-24T12:27:43.093Z,98643
2018-05-24T12:30:11.958Z,98638
2018-05-24T12:32:41.261Z,98641
2018-05-24T12:35:11.016Z,98639
2018-05-24T12:37:41.308Z,98632
2018-05-24T12:40:09.399Z,98630
2018-05-24T12:42:38.181Z,98636
2018-05-24T12:45:07.745Z,98632
2018-05-24T12:47:36.010Z,98630
2018-05-24T12:50:04.088Z,98624
2018-05-24T12:52:33.095Z,98624
2018-05-24T12:55:01.885Z,98619
2018-05-24T12:57:29.961Z,98630
2018-05-24T12:59:59.047Z,98639
2018-05-24T13:02:27.113Z,98645
2018-05-24T13:04:55.187Z,98641
2018-05-24T13:07:23.343Z,98637
2018-05-24T13:09:52.256Z,98636
2018-05-24T13:12:20.949Z,98646
2018-05-24T13:14:49.863Z,98653
2018-05-24T13:17:19.685Z,98656
2018-05-24T13:19:49.078Z,98661
2018-05-24T13:22:17.977Z,98664
2018-05-24T13:24:46.985Z,98668
2018-05-24T13:27:16.367Z,98668
2018-05-24T13:29:46.615Z,98666
2018-05-24T13:32:14.703Z,98657
2018-05-24T13:34:43.581Z,98659
2018-05-24T13:37:12.280Z,98662
2018-05-24T13:39:41.382Z,98664
2018-05-24T13:42:09.486Z,98671
2018-05-24T13:44:37.581Z,98675
2018-05-24T13:47:07.285Z,98678
2018-05-24T13:49:38.026Z,98672
2018-05-24T13:52:06.956Z,98678
2018-05-24T13:54:35.000Z,98685
2018-05-24T13:57:03.115Z,98693
2018-05-24T13:59:31.173Z,98694
2018-05-24T14:01:59.331Z,98693
2018-05-24T14:04:27.337Z,98691
2018-05-24T14:06:55.424Z,98687
2018-05-24T14:09:23.485Z,98686
2018-05-24T14:11:51.588Z,98686
2018-05-24T14:14:21.284Z,98687
2018-05-24T14:16:49.365Z,98684
2018-05-24T14:19:18.356Z,98683
2018-05-24T14:21:46.420Z,98683
2018-05-24T14:24:14.501Z,98683
2018-05-24T14:26:42.852Z,98676
2018-05-24T14:29:10.920Z,98668
2018-05-24T14:31:39.025Z,98665
2018-05-24T14:34:07.096Z,98665
2018-05-24T14:36:36.770Z,98664
2018-05-24T14:39:04.944Z,98669
2018-05-24T14:41:33.031Z,98674
2018-05-24T14:44:01.416Z,98672
2018-05-24T14:46:30.112Z,98670
2018-05-24T14:48:58.952Z,98672
2018-05-24T14:51:27.049Z,98674
2018-05-24T14:53:55.760Z,98664
2018-05-24T14:56:24.628Z,98657
2018-05-24T14:58:52.692Z,98660
2018-05-24T15:01:20.813Z,98664
2018-05-24T15:03:48.868Z,98657
2018-05-24T15:06:18.164Z,98659
2018-05-24T15:08:47.039Z,98659
2018-05-24T15:11:15.615Z,98660
2018-05-24T15:13:44.532Z,98663
2018-05-24T15:16:13.495Z,98662
2018-05-24T15:18:41.593Z,98670
2018-05-24T15:21:09.666Z,98664
2018-05-24T15:23:38.017Z,98658
2018-05-24T15:26:06.114Z,98651
2018-05-24T15:28:34.205Z,98644
2018-05-24T15:31:02.664Z,98638
2018-05-24T15:33:30.709Z,98644
2018-05-24T15:35:58.809Z,98644
2018-05-24T15:38:28.520Z,98641
2018-05-24T15:40:57.804Z,98641
2018-05-24T15:43:26.769Z,98632
2018-05-24T15:45:55.601Z,98626
2018-05-24T15:48:24.277Z,98623
2018-05-24T15:50:52.356Z,98627
2018-05-24T15:53:21.112Z,98629
2018-05-24T15:55:50.041Z,98637
2018-05-24T15:58:18.924Z,98642
2018-05-24T16:00:47.049Z,98641
2018-05-24T16:03:15.482Z,98642
2018-05-24T16:05:44.332Z,98643
2018-05-24T16:08:12.440Z,98640
2018-05-24T16:10:41.433Z,98634
2018-05-24T16:13:10.273Z,98629
2018-05-24T16:15:38.869Z,98627
2018-05-24T16:18:06.941Z,98621
2018-05-24T16:20:35.728Z,98614
2018-05-24T16:23:03.840Z,98612
2018-05-24T16:25:32.833Z,98616
2018-05-24T16:28:00.886Z,98619
2018-05-24T16:30:29.956Z,98615
2018-05-24T16:32:58.123Z,98613
2018-05-24T16:35:26.189Z,98612
2018-05-24T16:37:54.936Z,98615
2018-05-24T16:40:23.797Z,98621
2018-05-24T16:42:51.853Z,98613
2018-05-24T16:45:20.277Z,98617
2018-05-24T16:47:49.113Z,98618
2018-05-24T16:50:17.908Z,98613
2018-05-24T16:52:46.829Z,98612
2018-05-24T16:55:14.917Z,98619
2018-05-24T16:57:43.752Z,98615
2018-05-24T17:00:11.861Z,98617
2018-05-24T17:02:40.725Z,98622
2018-05-24T17:05:08.841Z,98625
2018-05-24T17:07:37.701Z,98633
2018-05-24T17:10:05.808Z,98628
2018-05-24T17:12:34.697Z,98632
2018-05-24T17:15:02.709Z,98628
2018-05-24T17:17:30.792Z,98628
2018-05-24T17:19:58.915Z,98631
2018-05-24T17:22:27.765Z,98625
2018-05-24T17:24:55.873Z,98620
2018-05-24T17:27:24.805Z,98627
2018-05-24T17:29:52.902Z,98622
2018-05-24T17:32:21.075Z,98626
2018-05-24T17:34:49.160Z,98633
2018-05-24T17:37:17.245Z,98636
2018-05-24T17:39:45.310Z,98643
2018-05-24T17:42:13.405Z,98644
2018-05-24T17:44:42.227Z,98645
2018-05-24T17:47:10.613Z,98651
2018-05-24T17:49:38.689Z,98653
2018-05-24T17:52:07.843Z,98659
2018-05-24T17:54:36.906Z,98656
2018-05-24T17:57:04.965Z,98655
2018-05-24T17:59:33.027Z,98661
2018-05-24T18:02:01.941Z,98662
2018-05-24T18:04:29.992Z,98660
2018-05-24T18:06:58.056Z,98661
2018-05-24T18:09:26.165Z,98656
2018-05-24T18:11:54.945Z,98656
2018-05-24T18:14:23.004Z,98652
2018-05-24T18:16:51.097Z,98657
2018-05-24T18:19:19.165Z,98665
2018-05-24T18:21:48.033Z,98670
2018-05-24T18:24:16.120Z,98668
2018-05-24T18:26:44.677Z,98669
2018-05-24T18:29:12.745Z,98671
2018-05-24T18:31:41.665Z,98674
2018-05-24T18:34:09.720Z,98681
2018-05-24T18:36:37.777Z,98681
2018-05-24T18:39:06.976Z,98677
2018-05-24T18:41:35.080Z,98679
2018-05-24T18:44:03.162Z,98679
2018-05-24T18:46:31.285Z,98677
2018-05-24T18:48:59.380Z,98683
2018-05-24T18:51:27.436Z,98690
2018-05-24T18:53:55.516Z,98690
2018-05-24T18:56:23.577Z,98687
2018-05-24T18:58:51.677Z,98685
2018-05-24T19:01:19.957Z,98682
2018-05-24T19:03:48.117Z,98682
2018-05-24T19:06:16.214Z,98687
2018-05-24T19:08:44.305Z,98694
2018-05-24T19:11:13.164Z,98703
2018-05-24T19:13:41.249Z,98701
2018-05-24T19:16:10.122Z,98702
2018-05-24T19:18:38.209Z,98706
2018-05-24T19:21:06.274Z,98710
2018-05-24T19:23:34.417Z,98709
2018-05-24T19:26:02.497Z,98714
2018-05-24T19:28:30.753Z,98719
2018-05-24T19:30:59.148Z,98723
2018-05-24T19:33:27.237Z,98719
2018-05-24T19:35:55.321Z,98726
2018-05-24T19:38:23.405Z,98735
2018-05-24T19:40:52.338Z,98743
2018-05-24T19:43:20.429Z,98740
2018-05-24T19:45:48.541Z,98748
2018-05-24T19:48:17.393Z,98764
2018-05-24T19:50:45.488Z,98769
2018-05-24T19:53:13.830Z,98767
2018-05-24T19:55:41.902Z,98764
2018-05-24T19:58:10.001Z,98764
2018-05-24T20:00:38.377Z,98757
2018-05-24T20:03:06.461Z,98758
2018-05-24T20:05:34.533Z,98767
2018-05-24T20:08:03.077Z,98767
2018-05-24T20:10:31.190Z,98763
2018-05-24T20:12:59.307Z,98766
2018-05-24T20:15:28.137Z,98763
2018-05-24T20:17:56.380Z,98767
2018-05-24T20:20:24.484Z,98769
2018-05-24T20:22:52.566Z,98775
2018-05-24T20:25:20.610Z,98779
2018-05-24T20:27:48.673Z,98778
2018-05-24T20:30:16.989Z,98776
2018-05-24T20:32:46.041Z,98769
2018-05-24T20:35:14.061Z,98767
2018-05-24T20:37:42.902Z,98769
2018-05-24T20:40:11.025Z,98757
2018-05-24T20:42:39.893Z,98752
2018-05-24T20:45:07.977Z,98750
2018-05-24T20:47:36.312Z,98748
2018-05-24T20:50:04.428Z,98742
2018-05-24T20:52:33.264Z,98734
2018-05-24T20:55:01.581Z,98730
2018-05-24T20:57:29.665Z,98727
2018-05-24T20:59:58.525Z,98730
2018-05-24T21:02:26.597Z,98736
2018-05-24T21:04:54.696Z,98735
2018-05-24T21:07:22.819Z,98738
2018-05-24T21:09:52.158Z,98738
2018-05-24T21:12:20.225Z,98742
2018-05-24T21:14:48.300Z,98738
2018-05-24T21:17:16.576Z,98737
2018-05-24T21:19:45.789Z,98737
2018-05-24T21:22:13.837Z,98733
2018-05-24T21:24:41.921Z,98738
2018-05-24T21:27:09.993Z,98732
2018-05-24T21:29:38.835Z,98728
2018-05-24T21:32:06.942Z,98727
2018-05-24T21:34:35.328Z,98726
2018-05-24T21:37:03.413Z,98729
2018-05-24T21:39:31.457Z,98731
2018-05-24T21:41:59.548Z,98734
2018-05-24T21:44:27.597Z,98733
2018-05-24T21:46:55.689Z,98734
2018-05-24T21:49:23.760Z,98732
2018-05-24T21:51:51.845Z,98744
2018-05-24T21:54:19.888Z,98749
2018-05-24T21:56:48.002Z,98747
2018-05-24T21:59:16.825Z,98752
2018-05-24T22:01:44.927Z,98753
2018-05-24T22:04:13.314Z,98755
2018-05-24T22:06:41.397Z,98753
2018-05-24T22:09:10.748Z,98759
2018-05-24T22:11:39.137Z,98754
2018-05-24T22:14:07.212Z,98753
2018-05-24T22:16:35.294Z,98750
2018-05-24T22:19:03.625Z,98752
2018-05-24T22:21:32.589Z,98755
2018-05-24T22:24:00.661Z,98760
2018-05-24T22:26:29.129Z,98758
2018-05-24T22:28:57.195Z,98765
2018-05-24T22:31:25.261Z,98769
2018-05-24T22:33:53.638Z,98766
2018-05-24T22:36:21.714Z,98769
2018-05-24T22:38:49.777Z,98767
2018-05-24T22:41:17.877Z,98765
2018-05-24T22:43:45.928Z,98773
2018-05-24T22:46:14.026Z,98766
2018-05-24T22:48:43.105Z,98771
2018-05-24T22:51:12.097Z,98772
2018-05-24T22:53:40.152Z,98771
2018-05-24T22:56:08.209Z,98770
2018-05-24T22:58:36.821Z,98772
2018-05-24T23:01:04.906Z,98770
2018-05-24T23:03:32.981Z,98770
2018-05-24T23:06:02.145Z,98769
2018-05-24T23:08:30.205Z,98774
2018-05-24T23:10:58.276Z,98775
2018-05-24T23:13:26.701Z,98773
2018-05-24T23:15:55.671Z,98773
2018-05-24T23:18:23.760Z,98771
2018-05-24T23:20:51.830Z,98766
2018-05-24T23:23:19.896Z,98769
2018-05-24T23:25:47.948Z,98769
2018-05-24T23:28:16.057Z,98765
2018-05-24T23:30:44.888Z,98763
2018-05-24T23:33:12.968Z,98773
2018-05-24T23:35:41.277Z,98775
2018-05-24T23:38:09.357Z,98774
2018-05-24T23:40:37.645Z,98772
2018-05-24T23:43:06.508Z,98771
2018-05-24T23:45:34.597Z,98768
2018-05-24T23:48:02.664Z,98764
2018-05-24T23:50:30.734Z,98768
2018-05-24T23:52:58.956Z,98776
2018-05-24T23:55:27.042Z,98774
2018-05-24T23:57:55.141Z,98774
